createdAt,value
2019-02-28T00:00:16.479Z,980.30
2019-02-28T00:01:16.396Z,980.26
2019-02-28T00:02:21.492Z,980.22
2019-02-28T00:03:16.235Z,980.24
2019-02-28T00:04:16.154Z,980.25
2019-02-28T00:05:16.062Z,980.24
2019-02-28T00:06:15.985Z,980.24
2019-02-28T00:07:18.093Z,980.22
2019-02-28T00:08:15.830Z,980.22
2019-02-28T00:09:15.731Z,980.18
2019-02-28T00:10:15.657Z,980.16
2019-02-28T00:11:15.567Z,980.18
2019-02-28T00:12:15.485Z,980.18
2019-02-28T00:13:15.402Z,980.18
2019-02-28T00:14:15.322Z,980.14
2019-02-28T00:15:15.237Z,980.18
2019-02-28T00:16:15.155Z,980.12
2019-02-28T00:17:15.079Z,980.11
2019-02-28T00:18:15.434Z,980.09
2019-02-28T00:19:14.904Z,980.05
2019-02-28T00:20:14.823Z,980.04
2019-02-28T00:21:14.740Z,980.01
2019-02-28T00:22:15.485Z,980.03
2019-02-28T00:23:14.580Z,979.99
2019-02-28T00:24:14.490Z,979.95
2019-02-28T00:25:14.411Z,979.99
2019-02-28T00:26:14.327Z,979.96
2019-02-28T00:27:14.243Z,979.92
2019-02-28T00:28:14.157Z,979.97
2019-02-28T00:29:14.074Z,979.90
2019-02-28T00:30:14.014Z,979.92
2019-02-28T00:31:15.305Z,979.90
2019-02-28T00:32:13.826Z,979.90
2019-02-28T00:33:13.746Z,979.86
2019-02-28T00:34:13.660Z,979.88
2019-02-28T00:35:14.112Z,979.87
2019-02-28T00:36:16.354Z,979.87
2019-02-28T00:37:13.411Z,979.87
2019-02-28T00:38:13.323Z,979.87
2019-02-28T00:39:13.251Z,979.84
2019-02-28T00:40:13.166Z,979.81
2019-02-28T00:41:13.079Z,979.82
2019-02-28T00:42:17.341Z,979.78
2019-02-28T00:43:12.915Z,979.80
2019-02-28T00:44:12.846Z,979.77
2019-02-28T00:45:12.748Z,979.78
2019-02-28T00:46:12.661Z,979.77
2019-02-28T00:47:12.580Z,979.72
2019-02-28T00:48:12.510Z,979.70
2019-02-28T00:49:12.419Z,979.70
2019-02-28T00:50:12.329Z,979.68
2019-02-28T00:51:12.244Z,979.67
2019-02-28T00:52:12.165Z,979.65
2019-02-28T00:53:12.082Z,979.64
2019-02-28T00:54:11.997Z,979.70
2019-02-28T00:55:14.506Z,979.62
2019-02-28T00:56:11.826Z,979.65
2019-02-28T00:57:11.749Z,979.62
2019-02-28T00:58:11.664Z,979.58
2019-02-28T00:59:11.583Z,979.60
2019-02-28T01:00:11.498Z,979.60
2019-02-28T01:01:11.691Z,979.57
2019-02-28T01:02:11.333Z,979.55
2019-02-28T01:03:11.242Z,979.53
2019-02-28T01:04:11.172Z,979.48
2019-02-28T01:05:11.083Z,979.45
2019-02-28T01:06:10.995Z,979.49
2019-02-28T01:07:13.242Z,979.45
2019-02-28T01:08:10.829Z,979.47
2019-02-28T01:09:10.747Z,979.40
2019-02-28T01:10:10.664Z,979.47
2019-02-28T01:11:13.273Z,979.40
2019-02-28T01:12:10.497Z,979.39
2019-02-28T01:13:10.420Z,979.39
2019-02-28T01:14:10.326Z,979.38
2019-02-28T01:15:10.777Z,979.38
2019-02-28T01:16:10.162Z,979.42
2019-02-28T01:17:10.080Z,979.38
2019-02-28T01:18:09.996Z,979.36
2019-02-28T01:19:10.270Z,979.33
2019-02-28T01:20:14.757Z,979.35
2019-02-28T01:21:09.742Z,979.35
2019-02-28T01:22:09.663Z,979.28
2019-02-28T01:23:09.583Z,979.31
2019-02-28T01:24:09.497Z,979.28
2019-02-28T01:25:09.412Z,979.25
2019-02-28T01:26:11.775Z,979.25
2019-02-28T01:27:09.250Z,979.27
2019-02-28T01:28:09.165Z,979.28
2019-02-28T01:29:09.078Z,979.24
2019-02-28T01:30:09.000Z,979.25
2019-02-28T01:31:11.579Z,979.25
2019-02-28T01:32:08.830Z,979.24
2019-02-28T01:33:08.746Z,979.28
2019-02-28T01:34:08.660Z,979.22
2019-02-28T01:35:08.579Z,979.20
2019-02-28T01:36:08.499Z,979.22
2019-02-28T01:37:08.410Z,979.18
2019-02-28T01:38:08.325Z,979.15
2019-02-28T01:39:08.240Z,979.13
2019-02-28T01:40:08.161Z,979.09
2019-02-28T01:41:08.374Z,979.14
2019-02-28T01:42:07.993Z,979.12
2019-02-28T01:43:07.910Z,979.12
2019-02-28T01:44:07.824Z,979.07
2019-02-28T01:45:09.965Z,979.08
2019-02-28T01:46:07.663Z,979.04
2019-02-28T01:47:07.575Z,979.03
2019-02-28T01:48:07.494Z,979.01
2019-02-28T01:49:07.409Z,979.02
2019-02-28T01:50:07.321Z,978.97
2019-02-28T01:51:07.243Z,978.97
2019-02-28T01:52:10.060Z,978.89
2019-02-28T01:53:07.072Z,978.88
2019-02-28T01:54:06.989Z,978.87
2019-02-28T01:55:06.910Z,978.84
2019-02-28T01:56:06.825Z,978.83
2019-02-28T01:57:09.014Z,978.82
2019-02-28T01:58:06.657Z,978.82
2019-02-28T01:59:06.574Z,978.81
2019-02-28T02:00:06.487Z,978.77
2019-02-28T02:01:06.405Z,978.74
2019-02-28T02:02:06.990Z,978.73
2019-02-28T02:03:06.235Z,978.76
2019-02-28T02:04:06.151Z,978.73
2019-02-28T02:05:06.068Z,978.72
2019-02-28T02:06:05.986Z,978.68
2019-02-28T02:07:05.901Z,978.66
2019-02-28T02:08:07.282Z,978.66
2019-02-28T02:09:08.115Z,978.63
2019-02-28T02:10:05.655Z,978.61
2019-02-28T02:11:05.566Z,978.60
2019-02-28T02:12:05.484Z,978.57
2019-02-28T02:13:05.401Z,978.54
2019-02-28T02:14:07.477Z,978.53
2019-02-28T02:15:05.249Z,978.47
2019-02-28T02:16:05.145Z,978.43
2019-02-28T02:17:05.067Z,978.40
2019-02-28T02:18:08.894Z,978.39
2019-02-28T02:19:04.900Z,978.40
2019-02-28T02:20:04.814Z,978.29
2019-02-28T02:21:04.730Z,978.33
2019-02-28T02:22:09.098Z,978.32
2019-02-28T02:23:04.560Z,978.27
2019-02-28T02:24:04.478Z,978.30
2019-02-28T02:25:04.392Z,978.21
2019-02-28T02:26:04.315Z,978.21
2019-02-28T02:27:04.225Z,978.18
2019-02-28T02:28:04.151Z,978.15
2019-02-28T02:29:04.060Z,978.13
2019-02-28T02:30:03.978Z,978.16
2019-02-28T02:31:03.893Z,978.14
2019-02-28T02:32:03.810Z,978.12
2019-02-28T02:33:03.719Z,978.08
2019-02-28T02:34:03.637Z,978.08
2019-02-28T02:35:08.140Z,978.11
2019-02-28T02:36:03.474Z,978.10
2019-02-28T02:37:03.432Z,978.11
2019-02-28T02:38:04.621Z,978.08
2019-02-28T02:39:03.232Z,978.03
2019-02-28T02:40:03.139Z,978.03
2019-02-28T02:41:04.899Z,978.04
2019-02-28T02:42:09.976Z,978.08
2019-02-28T02:43:02.892Z,978.01
2019-02-28T02:44:02.799Z,978.00
2019-02-28T02:45:04.925Z,978.01
2019-02-28T02:46:02.643Z,978.02
2019-02-28T02:47:02.548Z,978.02
2019-02-28T02:48:05.322Z,978.00
2019-02-28T02:49:02.386Z,977.99
2019-02-28T02:50:02.311Z,977.96
2019-02-28T02:51:02.226Z,977.94
2019-02-28T02:52:02.125Z,977.92
2019-02-28T02:53:05.381Z,977.92
2019-02-28T02:54:01.970Z,977.91
2019-02-28T02:55:01.881Z,977.94
2019-02-28T02:56:03.861Z,977.95
2019-02-28T02:57:01.707Z,977.93
2019-02-28T02:58:01.623Z,977.96
2019-02-28T02:59:02.352Z,977.98
2019-02-28T03:00:01.459Z,977.99
2019-02-28T03:01:01.386Z,977.95
2019-02-28T03:02:01.286Z,977.97
2019-02-28T03:03:01.258Z,977.96
2019-02-28T03:04:01.119Z,977.96
2019-02-28T03:05:01.037Z,977.96
2019-02-28T03:06:00.952Z,977.88
2019-02-28T03:07:00.875Z,977.92
2019-02-28T03:08:01.081Z,977.95
2019-02-28T03:09:00.703Z,977.89
2019-02-28T03:10:00.617Z,977.90
2019-02-28T03:11:00.536Z,977.91
2019-02-28T03:12:00.472Z,977.92
2019-02-28T03:13:04.502Z,977.85
2019-02-28T03:14:00.282Z,977.86
2019-02-28T03:15:00.485Z,977.86
2019-02-28T03:16:00.538Z,977.84
2019-02-28T03:17:00.028Z,977.83
2019-02-28T03:17:59.985Z,977.81
2019-02-28T03:18:59.863Z,977.78
2019-02-28T03:19:59.773Z,977.79
2019-02-28T03:20:59.692Z,977.79
2019-02-28T03:21:59.605Z,977.80
2019-02-28T03:23:02.240Z,977.76
2019-02-28T03:23:59.429Z,977.73
2019-02-28T03:24:59.357Z,977.77
2019-02-28T03:26:05.730Z,977.76
2019-02-28T03:26:59.184Z,977.74
2019-02-28T03:27:59.104Z,977.73
2019-02-28T03:28:59.022Z,977.70
2019-02-28T03:29:58.943Z,977.70
2019-02-28T03:30:58.848Z,977.70
2019-02-28T03:31:59.450Z,977.70
2019-02-28T03:32:58.683Z,977.73
2019-02-28T03:34:10.545Z,977.71
2019-02-28T03:34:59.454Z,977.68
2019-02-28T03:35:58.427Z,977.60
2019-02-28T03:36:58.340Z,977.63
2019-02-28T03:37:58.254Z,977.63
2019-02-28T03:38:58.177Z,977.60
2019-02-28T03:40:03.126Z,977.60
2019-02-28T03:40:58.002Z,977.57
2019-02-28T03:41:57.924Z,977.61
2019-02-28T03:43:05.534Z,977.60
2019-02-28T03:43:57.747Z,977.57
2019-02-28T03:44:58.298Z,977.63
2019-02-28T03:45:57.586Z,977.52
2019-02-28T03:46:57.509Z,977.53
2019-02-28T03:47:58.742Z,977.56
2019-02-28T03:48:57.331Z,977.53
2019-02-28T03:49:57.244Z,977.54
2019-02-28T03:50:57.156Z,977.55
2019-02-28T03:51:57.084Z,977.53
2019-02-28T03:52:56.993Z,977.54
2019-02-28T03:53:56.988Z,977.52
2019-02-28T03:54:56.827Z,977.55
2019-02-28T03:55:56.737Z,977.52
2019-02-28T03:56:56.659Z,977.52
2019-02-28T03:58:04.249Z,977.50
2019-02-28T03:58:56.488Z,977.54
2019-02-28T03:59:56.986Z,977.52
2019-02-28T04:00:56.321Z,977.53
2019-02-28T04:01:56.237Z,977.54
2019-02-28T04:02:58.768Z,977.55
2019-02-28T04:03:56.069Z,977.53
2019-02-28T04:04:55.980Z,977.55
2019-02-28T04:06:03.411Z,977.56
2019-02-28T04:06:55.812Z,977.58
2019-02-28T04:07:55.736Z,977.55
2019-02-28T04:08:55.644Z,977.52
2019-02-28T04:09:55.561Z,977.54
2019-02-28T04:10:55.911Z,977.50
2019-02-28T04:11:55.389Z,977.53
2019-02-28T04:12:55.298Z,977.53
2019-02-28T04:13:56.028Z,977.56
2019-02-28T04:14:55.139Z,977.53
2019-02-28T04:16:07.458Z,977.52
2019-02-28T04:16:54.969Z,977.55
2019-02-28T04:17:54.884Z,977.51
2019-02-28T04:18:54.797Z,977.55
2019-02-28T04:19:58.761Z,977.53
2019-02-28T04:20:54.634Z,977.56
2019-02-28T04:21:54.560Z,977.57
2019-02-28T04:22:58.709Z,977.53
2019-02-28T04:23:54.380Z,977.55
2019-02-28T04:24:54.295Z,977.51
2019-02-28T04:25:56.802Z,977.53
2019-02-28T04:26:54.122Z,977.57
2019-02-28T04:27:54.043Z,977.53
2019-02-28T04:28:54.956Z,977.55
2019-02-28T04:29:53.869Z,977.50
2019-02-28T04:30:53.787Z,977.51
2019-02-28T04:31:53.711Z,977.50
2019-02-28T04:32:53.615Z,977.46
2019-02-28T04:33:53.531Z,977.45
2019-02-28T04:34:53.447Z,977.42
2019-02-28T04:35:53.366Z,977.48
2019-02-28T04:36:53.279Z,977.42
2019-02-28T04:37:53.230Z,977.42
2019-02-28T04:38:53.111Z,977.41
2019-02-28T04:39:53.433Z,977.40
2019-02-28T04:40:52.943Z,977.40
2019-02-28T04:41:52.857Z,977.36
2019-02-28T04:42:52.770Z,977.34
2019-02-28T04:43:52.688Z,977.38
2019-02-28T04:44:52.625Z,977.34
2019-02-28T04:45:52.518Z,977.35
2019-02-28T04:46:52.431Z,977.30
2019-02-28T04:47:52.346Z,977.33
2019-02-28T04:48:52.265Z,977.31
2019-02-28T04:49:53.462Z,977.33
2019-02-28T04:50:52.096Z,977.30
2019-02-28T04:51:52.010Z,977.26
2019-02-28T04:52:51.928Z,977.31
2019-02-28T04:53:52.959Z,977.30
2019-02-28T04:54:51.769Z,977.28
2019-02-28T04:55:51.674Z,977.30
2019-02-28T04:56:51.592Z,977.27
2019-02-28T04:57:52.235Z,977.27
2019-02-28T04:58:51.419Z,977.29
2019-02-28T04:59:51.335Z,977.28
2019-02-28T05:00:51.252Z,977.32
2019-02-28T05:01:51.163Z,977.28
2019-02-28T05:02:53.866Z,977.27
2019-02-28T05:03:52.693Z,977.27
2019-02-28T05:04:50.962Z,977.25
2019-02-28T05:05:50.834Z,977.28
2019-02-28T05:06:52.160Z,977.22
2019-02-28T05:07:50.662Z,977.25
2019-02-28T05:08:50.575Z,977.25
2019-02-28T05:09:50.487Z,977.27
2019-02-28T05:10:55.645Z,977.27
2019-02-28T05:11:50.320Z,977.21
2019-02-28T05:12:50.239Z,977.27
2019-02-28T05:13:50.154Z,977.21
2019-02-28T05:14:50.068Z,977.23
2019-02-28T05:15:49.980Z,977.17
2019-02-28T05:16:49.897Z,977.22
2019-02-28T05:17:49.807Z,977.18
2019-02-28T05:18:49.729Z,977.14
2019-02-28T05:19:49.640Z,977.18
2019-02-28T05:20:49.588Z,977.18
2019-02-28T05:21:50.626Z,977.15
2019-02-28T05:22:49.389Z,977.13
2019-02-28T05:23:49.305Z,977.13
2019-02-28T05:24:49.213Z,977.10
2019-02-28T05:25:52.116Z,977.17
2019-02-28T05:26:49.048Z,977.08
2019-02-28T05:27:48.972Z,977.09
2019-02-28T05:28:48.877Z,977.14
2019-02-28T05:29:48.794Z,977.10
2019-02-28T05:30:50.153Z,977.10
2019-02-28T05:31:48.630Z,977.12
2019-02-28T05:32:48.547Z,977.08
2019-02-28T05:33:48.459Z,977.10
2019-02-28T05:34:50.936Z,977.07
2019-02-28T05:35:48.288Z,977.07
2019-02-28T05:36:48.206Z,977.10
2019-02-28T05:37:48.592Z,977.09
2019-02-28T05:38:48.034Z,977.08
2019-02-28T05:39:47.956Z,977.10
2019-02-28T05:40:47.864Z,977.10
2019-02-28T05:41:49.468Z,977.10
2019-02-28T05:42:47.708Z,977.10
2019-02-28T05:43:47.611Z,977.06
2019-02-28T05:44:47.523Z,977.12
2019-02-28T05:45:49.554Z,977.09
2019-02-28T05:46:47.360Z,977.08
2019-02-28T05:47:47.542Z,977.12
2019-02-28T05:48:47.196Z,977.07
2019-02-28T05:49:47.103Z,977.12
2019-02-28T05:50:52.638Z,977.14
2019-02-28T05:51:46.950Z,977.10
2019-02-28T05:52:46.848Z,977.09
2019-02-28T05:53:46.769Z,977.16
2019-02-28T05:54:47.283Z,977.12
2019-02-28T05:55:46.589Z,977.15
2019-02-28T05:56:46.511Z,977.15
2019-02-28T05:57:46.420Z,977.11
2019-02-28T05:58:46.346Z,977.15
2019-02-28T05:59:46.292Z,977.13
2019-02-28T06:00:46.177Z,977.10
2019-02-28T06:01:47.071Z,977.15
2019-02-28T06:02:46.002Z,977.14
2019-02-28T06:03:45.922Z,977.13
2019-02-28T06:04:45.832Z,977.14
2019-02-28T06:05:46.344Z,977.15
2019-02-28T06:06:45.667Z,977.11
2019-02-28T06:07:45.583Z,977.11
2019-02-28T06:08:45.493Z,977.12
2019-02-28T06:09:45.585Z,977.21
2019-02-28T06:10:45.337Z,977.18
2019-02-28T06:11:45.267Z,977.17
2019-02-28T06:12:45.200Z,977.24
2019-02-28T06:13:45.073Z,977.23
2019-02-28T06:14:44.995Z,977.21
2019-02-28T06:15:44.901Z,977.23
2019-02-28T06:16:46.858Z,977.20
2019-02-28T06:17:44.736Z,977.25
2019-02-28T06:18:44.652Z,977.27
2019-02-28T06:19:44.556Z,977.23
2019-02-28T06:20:44.477Z,977.26
2019-02-28T06:21:44.395Z,977.24
2019-02-28T06:22:44.319Z,977.27
2019-02-28T06:23:44.218Z,977.26
2019-02-28T06:24:44.885Z,977.23
2019-02-28T06:25:44.053Z,977.28
2019-02-28T06:26:43.966Z,977.31
2019-02-28T06:27:48.911Z,977.29
2019-02-28T06:28:43.800Z,977.28
2019-02-28T06:29:43.711Z,977.30
2019-02-28T06:30:43.630Z,977.30
2019-02-28T06:31:45.403Z,977.31
2019-02-28T06:32:43.466Z,977.35
2019-02-28T06:33:43.377Z,977.29
2019-02-28T06:34:43.291Z,977.34
2019-02-28T06:35:43.209Z,977.39
2019-02-28T06:36:43.131Z,977.38
2019-02-28T06:37:43.039Z,977.37
2019-02-28T06:38:42.955Z,977.34
2019-02-28T06:39:42.867Z,977.38
2019-02-28T06:40:42.785Z,977.34
2019-02-28T06:41:42.697Z,977.37
2019-02-28T06:42:43.474Z,977.38
2019-02-28T06:43:44.259Z,977.36
2019-02-28T06:44:42.444Z,977.41
2019-02-28T06:45:42.365Z,977.43
2019-02-28T06:46:42.273Z,977.41
2019-02-28T06:47:42.191Z,977.36
2019-02-28T06:48:42.102Z,977.42
2019-02-28T06:49:42.118Z,977.46
2019-02-28T06:50:44.666Z,977.46
2019-02-28T06:51:41.849Z,977.48
2019-02-28T06:52:41.764Z,977.46
2019-02-28T06:53:41.682Z,977.47
2019-02-28T06:54:41.598Z,977.48
2019-02-28T06:55:43.431Z,977.53
2019-02-28T06:56:41.430Z,977.49
2019-02-28T06:57:41.346Z,977.51
2019-02-28T06:58:41.262Z,977.53
2019-02-28T06:59:41.177Z,977.54
2019-02-28T07:00:41.092Z,977.51
2019-02-28T07:01:41.004Z,977.51
2019-02-28T07:02:40.943Z,977.56
2019-02-28T07:03:42.482Z,977.58
2019-02-28T07:04:40.755Z,977.54
2019-02-28T07:05:40.669Z,977.56
2019-02-28T07:06:40.586Z,977.50
2019-02-28T07:07:40.501Z,977.51
2019-02-28T07:08:40.422Z,977.55
2019-02-28T07:09:40.355Z,977.59
2019-02-28T07:10:41.537Z,977.57
2019-02-28T07:11:40.160Z,977.60
2019-02-28T07:12:40.088Z,977.57
2019-02-28T07:13:40.258Z,977.58
2019-02-28T07:14:39.908Z,977.59
2019-02-28T07:15:39.822Z,977.59
2019-02-28T07:16:39.741Z,977.57
2019-02-28T07:17:42.603Z,977.56
2019-02-28T07:18:39.574Z,977.59
2019-02-28T07:19:39.489Z,977.58
2019-02-28T07:20:39.411Z,977.53
2019-02-28T07:21:42.826Z,977.56
2019-02-28T07:22:40.075Z,977.60
2019-02-28T07:23:39.151Z,977.60
2019-02-28T07:24:39.067Z,977.58
2019-02-28T07:25:38.989Z,977.53
2019-02-28T07:26:38.911Z,977.58
2019-02-28T07:27:38.816Z,977.55
2019-02-28T07:28:38.732Z,977.59
2019-02-28T07:29:38.648Z,977.55
2019-02-28T07:30:38.568Z,977.59
2019-02-28T07:31:38.478Z,977.57
2019-02-28T07:32:38.403Z,977.57
2019-02-28T07:33:38.314Z,977.53
2019-02-28T07:34:38.227Z,977.56
2019-02-28T07:35:38.138Z,977.52
2019-02-28T07:36:38.071Z,977.53
2019-02-28T07:37:37.989Z,977.57
2019-02-28T07:38:37.892Z,977.51
2019-02-28T07:39:40.260Z,977.56
2019-02-28T07:40:37.723Z,977.62
2019-02-28T07:41:37.650Z,977.56
2019-02-28T07:42:38.525Z,977.55
2019-02-28T07:43:37.849Z,977.55
2019-02-28T07:44:38.099Z,977.57
2019-02-28T07:45:37.312Z,977.57
2019-02-28T07:46:38.818Z,977.60
2019-02-28T07:47:37.143Z,977.53
2019-02-28T07:48:37.061Z,977.58
2019-02-28T07:49:37.070Z,977.57
2019-02-28T07:50:36.894Z,977.57
2019-02-28T07:51:36.807Z,977.52
2019-02-28T07:52:36.726Z,977.51
2019-02-28T07:53:36.643Z,977.54
2019-02-28T07:54:36.559Z,977.51
2019-02-28T07:55:36.481Z,977.51
2019-02-28T07:56:42.693Z,977.53
2019-02-28T07:57:36.364Z,977.44
2019-02-28T07:58:36.228Z,977.46
2019-02-28T07:59:40.777Z,977.50
2019-02-28T08:00:36.066Z,977.49
2019-02-28T08:01:35.983Z,977.43
2019-02-28T08:02:39.222Z,977.46
2019-02-28T08:03:35.816Z,977.48
2019-02-28T08:04:35.737Z,977.48
2019-02-28T08:05:35.656Z,977.48
2019-02-28T08:06:36.349Z,977.49
2019-02-28T08:07:35.488Z,977.48
2019-02-28T08:08:35.410Z,977.49
2019-02-28T08:09:36.741Z,977.48
2019-02-28T08:10:35.254Z,977.47
2019-02-28T08:11:35.158Z,977.48
2019-02-28T08:12:35.082Z,977.46
2019-02-28T08:13:37.877Z,977.47
2019-02-28T08:14:34.915Z,977.44
2019-02-28T08:15:34.840Z,977.46
2019-02-28T08:16:34.813Z,977.44
2019-02-28T08:17:35.411Z,977.45
2019-02-28T08:18:34.593Z,977.39
2019-02-28T08:19:34.517Z,977.38
2019-02-28T08:20:34.837Z,977.37
2019-02-28T08:21:34.357Z,977.38
2019-02-28T08:22:34.273Z,977.42
2019-02-28T08:23:34.193Z,977.41
2019-02-28T08:24:35.811Z,977.41
2019-02-28T08:25:34.026Z,977.39
2019-02-28T08:26:33.950Z,977.37
2019-02-28T08:27:33.872Z,977.40
2019-02-28T08:28:36.786Z,977.42
2019-02-28T08:29:33.704Z,977.42
2019-02-28T08:30:33.636Z,977.37
2019-02-28T08:31:33.551Z,977.40
2019-02-28T08:32:33.952Z,977.44
2019-02-28T08:33:33.390Z,977.43
2019-02-28T08:34:33.316Z,977.42
2019-02-28T08:35:34.875Z,977.51
2019-02-28T08:36:33.147Z,977.46
2019-02-28T08:37:33.081Z,977.46
2019-02-28T08:38:34.267Z,977.41
2019-02-28T08:39:32.911Z,977.51
2019-02-28T08:40:32.829Z,977.49
2019-02-28T08:41:32.754Z,977.49
2019-02-28T08:42:38.715Z,977.54
2019-02-28T08:43:32.599Z,977.53
2019-02-28T08:44:32.516Z,977.51
2019-02-28T08:45:33.261Z,977.52
2019-02-28T08:46:32.366Z,977.49
2019-02-28T08:47:32.277Z,977.50
2019-02-28T08:48:32.820Z,977.49
2019-02-28T08:49:32.124Z,977.48
2019-02-28T08:50:32.038Z,977.47
2019-02-28T08:51:31.963Z,977.46
2019-02-28T08:52:31.896Z,977.45
2019-02-28T08:53:31.806Z,977.44
2019-02-28T08:54:31.730Z,977.48
2019-02-28T08:55:31.654Z,977.50
2019-02-28T08:56:32.297Z,977.43
2019-02-28T08:57:31.495Z,977.37
2019-02-28T08:58:31.412Z,977.43
2019-02-28T08:59:31.351Z,977.41
2019-02-28T09:00:33.065Z,977.39
2019-02-28T09:01:31.186Z,977.41
2019-02-28T09:02:31.103Z,977.41
2019-02-28T09:03:31.042Z,977.45
2019-02-28T09:04:30.943Z,977.47
2019-02-28T09:05:30.864Z,977.50
2019-02-28T09:06:30.799Z,977.55
2019-02-28T09:07:30.710Z,977.55
2019-02-28T09:08:30.634Z,977.49
2019-02-28T09:09:31.676Z,977.49
2019-02-28T09:10:30.477Z,977.49
2019-02-28T09:11:30.402Z,977.49
2019-02-28T09:12:33.291Z,977.52
2019-02-28T09:13:30.246Z,977.53
2019-02-28T09:14:30.163Z,977.53
2019-02-28T09:15:31.249Z,977.43
2019-02-28T09:16:30.012Z,977.49
2019-02-28T09:17:29.936Z,977.47
2019-02-28T09:18:29.863Z,977.44
2019-02-28T09:19:32.581Z,977.43
2019-02-28T09:20:29.704Z,977.44
2019-02-28T09:21:29.628Z,977.41
2019-02-28T09:22:29.548Z,977.42
2019-02-28T09:23:29.476Z,977.46
2019-02-28T09:24:29.393Z,977.45
2019-02-28T09:25:29.322Z,977.41
2019-02-28T09:26:31.280Z,977.49
2019-02-28T09:27:29.161Z,977.43
2019-02-28T09:28:29.088Z,977.42
2019-02-28T09:29:29.012Z,977.45
2019-02-28T09:30:29.666Z,977.52
2019-02-28T09:31:28.856Z,977.51
2019-02-28T09:32:28.775Z,977.51
2019-02-28T09:33:28.699Z,977.50
2019-02-28T09:34:30.678Z,977.54
2019-02-28T09:35:28.546Z,977.50
2019-02-28T09:36:28.469Z,977.52
2019-02-28T09:37:29.830Z,977.52
2019-02-28T09:38:28.317Z,977.52
2019-02-28T09:39:28.242Z,977.52
2019-02-28T09:40:29.630Z,977.46
2019-02-28T09:41:28.099Z,977.41
2019-02-28T09:42:28.010Z,977.44
2019-02-28T09:43:27.932Z,977.40
2019-02-28T09:44:31.481Z,977.40
2019-02-28T09:45:27.785Z,977.42
2019-02-28T09:46:27.706Z,977.37
2019-02-28T09:47:27.630Z,977.37
2019-02-28T09:48:27.549Z,977.35
2019-02-28T09:49:27.477Z,977.32
2019-02-28T09:50:27.401Z,977.37
2019-02-28T09:51:31.514Z,977.30
2019-02-28T09:52:27.249Z,977.40
2019-02-28T09:53:27.168Z,977.39
2019-02-28T09:54:27.103Z,977.38
2019-02-28T09:55:27.021Z,977.41
2019-02-28T09:56:26.948Z,977.38
2019-02-28T09:57:26.865Z,977.39
2019-02-28T09:58:29.297Z,977.35
2019-02-28T09:59:26.718Z,977.39
2019-02-28T10:00:27.609Z,977.36
2019-02-28T10:01:26.563Z,977.44
2019-02-28T10:02:26.491Z,977.36
2019-02-28T10:03:26.412Z,977.40
2019-02-28T10:04:27.418Z,977.31
2019-02-28T10:05:26.265Z,977.34
2019-02-28T10:06:26.186Z,977.29
2019-02-28T10:07:26.505Z,977.29
2019-02-28T10:08:26.031Z,977.27
2019-02-28T10:09:25.956Z,977.33
2019-02-28T10:10:25.887Z,977.30
2019-02-28T10:11:31.238Z,977.29
2019-02-28T10:12:25.743Z,977.34
2019-02-28T10:13:25.652Z,977.33
2019-02-28T10:14:28.514Z,977.29
2019-02-28T10:15:25.505Z,977.31
2019-02-28T10:16:25.433Z,977.36
2019-02-28T10:17:25.913Z,977.35
2019-02-28T10:18:25.285Z,977.29
2019-02-28T10:19:25.201Z,977.31
2019-02-28T10:20:27.089Z,977.23
2019-02-28T10:21:25.397Z,977.28
2019-02-28T10:22:24.977Z,977.26
2019-02-28T10:23:24.906Z,977.25
2019-02-28T10:24:24.834Z,977.18
2019-02-28T10:25:24.751Z,977.24
2019-02-28T10:26:24.672Z,977.32
2019-02-28T10:27:26.898Z,977.29
2019-02-28T10:28:24.526Z,977.29
2019-02-28T10:29:24.452Z,977.31
2019-02-28T10:30:31.201Z,977.25
2019-02-28T10:31:34.796Z,977.25
2019-02-28T10:32:24.227Z,977.24
2019-02-28T10:33:24.156Z,977.30
2019-02-28T10:34:26.412Z,977.30
2019-02-28T10:35:24.004Z,977.28
2019-02-28T10:36:23.927Z,977.28
2019-02-28T10:37:23.854Z,977.28
2019-02-28T10:38:23.784Z,977.29
2019-02-28T10:39:23.703Z,977.29
2019-02-28T10:40:23.630Z,977.33
2019-02-28T10:41:24.281Z,977.24
2019-02-28T10:42:23.480Z,977.34
2019-02-28T10:43:23.405Z,977.27
2019-02-28T10:44:23.330Z,977.26
2019-02-28T10:45:23.256Z,977.28
2019-02-28T10:46:23.183Z,977.18
2019-02-28T10:47:28.121Z,977.18
2019-02-28T10:48:23.029Z,977.24
2019-02-28T10:49:24.135Z,977.22
2019-02-28T10:50:22.883Z,977.19
2019-02-28T10:51:22.807Z,977.17
2019-02-28T10:52:23.457Z,977.20
2019-02-28T10:53:22.657Z,977.24
2019-02-28T10:54:22.587Z,977.23
2019-02-28T10:55:23.351Z,977.25
2019-02-28T10:56:22.433Z,977.31
2019-02-28T10:57:22.363Z,977.19
2019-02-28T10:58:22.294Z,977.21
2019-02-28T10:59:24.444Z,977.16
2019-02-28T11:00:22.149Z,977.10
2019-02-28T11:01:22.064Z,977.13
2019-02-28T11:02:21.996Z,977.09
2019-02-28T11:03:21.917Z,977.08
2019-02-28T11:04:21.842Z,977.05
2019-02-28T11:05:21.766Z,977.06
2019-02-28T11:06:21.689Z,977.07
2019-02-28T11:07:21.620Z,977.02
2019-02-28T11:08:21.546Z,976.97
2019-02-28T11:09:25.241Z,976.95
2019-02-28T11:10:21.398Z,976.97
2019-02-28T11:11:21.320Z,976.97
2019-02-28T11:12:23.728Z,976.94
2019-02-28T11:13:21.171Z,976.92
2019-02-28T11:14:21.099Z,976.91
2019-02-28T11:15:21.022Z,976.88
2019-02-28T11:16:23.680Z,976.88
2019-02-28T11:17:20.878Z,976.79
2019-02-28T11:18:20.810Z,976.86
2019-02-28T11:19:20.731Z,976.88
2019-02-28T11:20:22.351Z,977.01
2019-02-28T11:21:20.580Z,976.84
2019-02-28T11:22:20.505Z,976.89
2019-02-28T11:23:20.434Z,976.84
2019-02-28T11:24:20.582Z,976.94
2019-02-28T11:25:20.285Z,976.93
2019-02-28T11:26:20.222Z,976.93
2019-02-28T11:27:22.854Z,976.93
2019-02-28T11:28:20.068Z,976.96
2019-02-28T11:29:19.997Z,977.03
2019-02-28T11:30:19.917Z,977.00
2019-02-28T11:31:20.105Z,976.96
2019-02-28T11:32:19.763Z,976.94
2019-02-28T11:33:19.692Z,976.90
2019-02-28T11:34:19.619Z,976.89
2019-02-28T11:35:20.107Z,976.78
2019-02-28T11:36:19.477Z,976.84
2019-02-28T11:37:19.415Z,976.85
2019-02-28T11:38:21.454Z,976.89
2019-02-28T11:39:19.251Z,976.92
2019-02-28T11:40:19.177Z,976.83
2019-02-28T11:41:19.658Z,976.78
2019-02-28T11:42:19.034Z,976.78
2019-02-28T11:43:18.958Z,976.82
2019-02-28T11:44:18.886Z,976.82
2019-02-28T11:45:21.882Z,976.96
2019-02-28T11:46:18.733Z,976.84
2019-02-28T11:47:18.664Z,976.91
2019-02-28T11:48:20.190Z,976.85
2019-02-28T11:49:18.516Z,976.85
2019-02-28T11:50:18.438Z,976.85
2019-02-28T11:51:18.520Z,976.88
2019-02-28T11:52:18.293Z,976.78
2019-02-28T11:53:19.148Z,976.84
2019-02-28T11:54:18.150Z,976.84
2019-02-28T11:55:20.300Z,976.77
2019-02-28T11:56:17.995Z,976.78
2019-02-28T11:57:17.934Z,976.75
2019-02-28T11:58:18.187Z,976.77
2019-02-28T11:59:17.775Z,976.74
2019-02-28T12:00:17.711Z,976.71
2019-02-28T12:01:17.636Z,976.76
2019-02-28T12:02:20.268Z,976.77
2019-02-28T12:03:17.481Z,976.77
2019-02-28T12:04:17.412Z,976.74
2019-02-28T12:05:17.420Z,976.68
2019-02-28T12:06:17.265Z,976.77
2019-02-28T12:07:17.190Z,976.68
2019-02-28T12:08:18.086Z,976.75
2019-02-28T12:09:19.258Z,976.69
2019-02-28T12:10:16.969Z,976.66
2019-02-28T12:11:16.895Z,976.66
2019-02-28T12:12:16.822Z,976.73
2019-02-28T12:13:19.626Z,976.70
2019-02-28T12:14:16.676Z,976.70
2019-02-28T12:15:16.614Z,976.69
2019-02-28T12:16:19.315Z,976.71
2019-02-28T12:17:16.450Z,976.71
2019-02-28T12:18:16.385Z,976.65
2019-02-28T12:19:16.832Z,976.55
2019-02-28T12:20:16.236Z,976.51
2019-02-28T12:21:16.173Z,976.52
2019-02-28T12:22:16.092Z,976.47
2019-02-28T12:23:16.017Z,976.48
2019-02-28T12:24:15.938Z,976.45
2019-02-28T12:25:15.869Z,976.41
2019-02-28T12:26:17.720Z,976.49
2019-02-28T12:27:15.721Z,976.42